Beverley, United Kingdom
Current Conditions -  °F | °C
As of 5:50 AM on Monday 20 Oct 2014 (Local Time) from EGXV Reporting Station
Overcast Overcast  
Wind Chill: 54°   Ceiling: 17000
Heat Index: 54°   Visibility: 6mi
Dew Point: 52°   Wind: 15mph
Humidity: 94%   Direction: 250°WSW
Pressure: 29.85"   Gusts: NA
Location:  53.85°N, 0.44°W
Report Text: EGXV 200450Z AUTO 25013KT 9999 FEW140/// OVC170/// 12/11 Q1011
Loading
Personal Weather Stations






























Interactive Weather Map
Tropical Storm Tracking
New forecast layout! Learn more

10-Day Weather Forecast

Advertisements
Track Severe Weather on mobile